DeKalb, Illinois
Current Conditions -  °F | °C
As of 6:55 AM on Friday 19 Dec 2014 (Local Time) from KDKB Reporting Station
Overcast Overcast  
Wind Chill: 19°   Ceiling: 2300
Heat Index: 25°   Visibility: 10mi
Dew Point: 20°   Wind: 5mph
Humidity: 83%   Direction: 350°N
Pressure: 30.29"   Gusts: NA
Location:  41.93°N, 88.75°W
Report Text: KDKB 191255Z AUTO 35004KT 10SM OVC023 M04/M06 A3029 RMK AO2 LTG DSNT N T10401065
Loading
Personal Weather Stations






























Interactive Weather Map New forecast layout! Learn more

10-Day Weather Forecast

Advertisements
Track Severe Weather on mobile